Time;durP1;ratioP1;P1;durP2;ratioP2;P2;SDS_P1;SDS_P2;PMS_P1;PMS_P2;Temp;Humidity;BMP_temperature;BMP_pressure;BME280_temperature;BME280_humidity;BME280_pressure;Samples;Min_cycle;Max_cycle;Signal;HPM_P1;HPM_P2
2021/04/27 00:00:40;;;;;;;7.13;4.57;;;;;;;-0.01;100.00;100155.55;1782714;80;21136;-68
2021/04/27 00:03:08;;;;;;;8.23;4.87;;;;;;;0.02;100.00;100162.01;1782808;80;21125;-68
2021/04/27 00:05:36;;;;;;;8.17;4.93;;;;;;;0.05;100.00;100157.80;1782479;80;21133;-68
2021/04/27 00:08:05;;;;;;;7.43;4.60;;;;;;;0.08;100.00;100160.27;1782626;80;21207;-68
2021/04/27 00:10:32;;;;;;;7.90;4.40;;;;;;;0.13;100.00;100164.80;1782574;80;21290;-68
2021/04/27 00:13:03;;;;;;;6.83;4.17;;;;;;;0.15;100.00;100162.89;1782789;80;21121;-68
2021/04/27 00:15:32;;;;;;;6.00;4.13;;;;;;;0.17;100.00;100172.94;1782547;80;21085;-68
2021/04/27 00:18:00;;;;;;;6.40;4.30;;;;;;;0.17;100.00;100166.78;1782730;80;21178;-68
2021/04/27 00:20:28;;;;;;;6.03;3.90;;;;;;;0.15;100.00;100167.36;1782299;80;21141;-68
2021/04/27 00:22:57;;;;;;;7.13;4.63;;;;;;;0.13;100.00;100163.95;1782484;80;21137;-68
2021/04/27 00:25:25;;;;;;;9.30;4.63;;;;;;;0.12;100.00;100162.23;1782622;80;21152;-68
2021/04/27 00:27:54;;;;;;;6.40;4.50;;;;;;;0.10;100.00;100157.50;1782298;80;21105;-68
2021/04/27 00:30:24;;;;;;;11.90;6.07;;;;;;;0.09;100.00;100155.78;1782505;80;21271;-68
2021/04/27 00:32:52;;;;;;;13.03;7.50;;;;;;;0.09;100.00;100161.11;1782444;80;21186;-69
2021/04/27 00:35:20;;;;;;;19.23;11.70;;;;;;;0.08;100.00;100156.76;1782407;80;21129;-69
2021/04/27 00:37:48;;;;;;;16.07;10.13;;;;;;;0.06;100.00;100160.00;1782423;80;21105;-69
2021/04/27 00:40:17;;;;;;;18.23;12.43;;;;;;;0.04;100.00;100153.94;1782421;80;21438;-69
2021/04/27 00:42:46;;;;;;;16.03;9.20;;;;;;;0.01;100.00;100151.47;1782628;80;21133;-69
2021/04/27 00:45:17;;;;;;;16.60;9.93;;;;;;;-0.03;100.00;100152.99;1782484;80;21556;-68
2021/04/27 00:47:45;;;;;;;14.50;8.73;;;;;;;-0.05;100.00;100166.02;1782384;80;21307;-69
2021/04/27 00:50:18;;;;;;;13.40;7.63;;;;;;;-0.06;100.00;100169.13;1782614;80;21094;-69
2021/04/27 00:52:46;;;;;;;11.70;6.50;;;;;;;-0.09;100.00;100168.03;1782525;80;21093;-69
2021/04/27 00:55:15;;;;;;;10.30;5.97;;;;;;;-0.12;100.00;100180.66;1782483;80;21129;-67
2021/04/27 00:57:43;;;;;;;7.67;4.93;;;;;;;-0.17;100.00;100182.28;1782481;80;21286;-69
2021/04/27 01:00:15;;;;;;;11.70;5.33;;;;;;;-0.20;100.00;100187.78;1751917;80;21332;-69
2021/04/27 01:02:43;;;;;;;7.37;4.53;;;;;;;-0.23;100.00;100194.62;1782647;80;21145;-69
2021/04/27 01:05:23;;;;;;;6.67;4.53;;;;;;;-0.26;100.00;100188.19;1782558;80;21105;-68
2021/04/27 01:08:28;;;;;;;7.37;4.33;;;;;;;-0.29;100.00;100187.05;1782574;80;21299;-68
2021/04/27 01:11:15;;;;;;;6.03;4.50;;;;;;;-0.31;100.00;100184.98;1782383;80;21168;-68
2021/04/27 01:14:06;;;;;;;7.10;4.30;;;;;;;-0.36;100.00;100176.44;1782515;80;21298;-68
2021/04/27 01:16:39;;;;;;;5.83;3.97;;;;;;;-0.39;100.00;100169.50;1782374;80;21137;-68
2021/04/27 01:19:09;;;;;;;4.62;4.00;;;;;;;-0.44;100.00;100167.16;1782694;80;21156;-69
2021/04/27 01:21:38;;;;;;;7.30;4.07;;;;;;;-0.45;100.00;100165.92;1727955;80;21161;-69
2021/04/27 01:24:20;;;;;;;7.03;4.27;;;;;;;-0.49;100.00;100163.94;1752602;80;21136;-69
2021/04/27 01:26:51;;;;;;;5.37;4.03;;;;;;;-0.54;100.00;100170.01;1782534;80;21279;-68
2021/04/27 01:29:27;;;;;;;6.27;4.03;;;;;;;-0.57;100.00;100180.81;1710069;83;21244;-69
2021/04/27 01:31:56;;;;;;;6.13;4.17;;;;;;;-0.57;100.00;100183.48;1709911;84;21157;-68
2021/04/27 01:34:32;;;;;;;9.27;4.70;;;;;;;-0.59;100.00;100184.05;1710040;84;21234;-68
2021/04/27 01:37:07;;;;;;;7.73;4.60;;;;;;;-0.56;100.00;100181.70;1814726;77;23351;-68
2021/04/27 01:39:35;;;;;;;9.43;4.60;;;;;;;-0.62;100.00;100182.91;1781335;79;21129;-69
2021/04/27 01:42:07;;;;;;;7.53;4.50;;;;;;;-0.65;100.00;100183.97;1786580;80;21125;-68
2021/04/27 01:44:37;;;;;;;8.50;4.93;;;;;;;-0.69;100.00;100182.47;1786447;80;21116;-68
2021/04/27 01:47:06;;;;;;;11.60;5.00;;;;;;;-0.74;100.00;100184.55;1786701;80;21140;-68
2021/04/27 01:49:35;;;;;;;8.07;4.53;;;;;;;-0.79;100.00;100183.98;1786795;80;21563;-68
2021/04/27 01:52:13;;;;;;;8.20;4.53;;;;;;;-0.81;100.00;100181.89;1693226;84;21215;-68
2021/04/27 01:54:43;;;;;;;8.03;4.57;;;;;;;-0.87;100.00;100183.10;1689815;85;21591;-68
2021/04/27 01:57:11;;;;;;;6.27;4.47;;;;;;;-0.91;100.00;100187.39;1693155;85;21160;-69
2021/04/27 01:59:39;;;;;;;6.47;4.37;;;;;;;-0.93;100.00;100186.63;1693386;85;21154;-69
2021/04/27 02:02:09;;;;;;;8.30;4.27;;;;;;;-0.93;100.00;100191.45;1693247;83;21152;-70
2021/04/27 02:04:38;;;;;;;6.83;4.23;;;;;;;-0.91;100.00;100193.54;1693073;83;21199;-68
2021/04/27 02:07:33;;;;;;;8.43;4.20;;;;;;;-0.88;100.00;100183.23;1814771;77;22435;-69
2021/04/27 02:10:05;;;;;;;8.10;4.50;;;;;;;-0.96;100.00;100190.31;1786509;80;21279;-68
2021/04/27 02:12:35;;;;;;;6.92;4.33;;;;;;;-0.98;100.00;100190.40;1738039;82;21651;-68
2021/04/27 02:15:06;;;;;;;8.13;4.47;;;;;;;-0.99;100.00;100190.04;1727231;83;21170;-68
2021/04/27 02:17:57;;;;;;;6.90;4.10;;;;;;;-0.97;100.00;100193.93;1698778;83;21715;-68
2021/04/27 02:20:26;;;;;;;7.13;4.20;;;;;;;-0.92;100.00;100198.48;1727402;83;21189;-70
2021/04/27 02:23:17;;;;;;;9.60;4.70;;;;;;;-0.84;100.00;100195.35;1814748;77;22428;-68
2021/04/27 02:25:46;;;;;;;7.13;4.40;;;;;;;-0.86;100.00;100195.44;1703242;84;21234;-69
2021/04/27 02:28:17;;;;;;;10.37;4.67;;;;;;;-0.83;100.00;100197.91;1679234;84;21720;-69
2021/04/27 02:30:47;;;;;;;8.13;4.53;;;;;;;-0.79;100.00;100196.77;1679333;84;21151;-69
2021/04/27 02:33:15;;;;;;;9.17;4.97;;;;;;;-0.75;100.00;100196.11;1731547;81;21645;-69
2021/04/27 02:35:43;;;;;;;7.03;4.80;;;;;;;-0.71;100.00;100202.08;1697781;84;21127;-68
2021/04/27 02:38:14;;;;;;;10.43;5.30;;;;;;;-0.67;100.00;100210.26;1699874;84;21215;-70
2021/04/27 02:40:53;;;;;;;8.10;4.90;;;;;;;-0.58;100.00;100214.98;1814801;77;23053;-69
2021/04/27 02:43:24;;;;;;;8.73;5.03;;;;;;;-0.56;100.00;100218.40;1755933;80;21116;-69
2021/04/27 02:45:53;;;;;;;6.30;4.30;;;;;;;-0.50;100.00;100212.69;1786762;80;21283;-69
2021/04/27 02:48:29;;;;;;;9.07;4.83;;;;;;;-0.46;100.00;100214.22;1749640;81;21195;-68
2021/04/27 02:51:14;;;;;;;7.87;4.40;;;;;;;-0.40;100.00;100209.84;1749376;82;21184;-69
2021/04/27 02:54:09;;;;;;;9.57;4.80;;;;;;;-0.28;100.00;100210.03;1855372;77;22140;-69
2021/04/27 02:56:39;;;;;;;8.13;4.97;;;;;;;-0.27;100.00;100216.55;1827412;78;21117;-69
2021/04/27 02:59:07;;;;;;;9.63;5.80;;;;;;;-0.23;100.00;100214.55;1827727;78;21299;-69
2021/04/27 03:01:40;;;;;;;11.65;5.47;;;;;;;-0.18;100.00;100216.92;1827792;78;21259;-69
2021/04/27 03:04:07;;;;;;;12.13;6.07;;;;;;;-0.15;100.00;100214.92;1827748;78;21175;-69
2021/04/27 03:06:38;;;;;;;10.93;5.93;;;;;;;-0.08;100.00;100216.72;1751779;81;21156;-68
2021/04/27 03:09:07;;;;;;;11.33;5.80;;;;;;;-0.05;100.00;100212.06;1751791;82;21736;-68
2021/04/27 03:11:36;;;;;;;8.27;5.33;;;;;;;-0.01;100.00;100217.55;1751747;82;21140;-68
2021/04/27 03:14:04;;;;;;;11.27;5.70;;;;;;;0.04;100.00;100223.91;1751993;82;21160;-68
2021/04/27 03:16:34;;;;;;;9.10;5.27;;;;;;;0.08;100.00;100221.90;1752022;82;21605;-69
2021/04/27 03:19:03;;;;;;;11.40;5.47;;;;;;;0.11;100.00;100226.55;1751836;82;21176;-68
2021/04/27 03:21:32;;;;;;;9.53;5.60;;;;;;;0.16;100.00;100226.23;1751612;82;21136;-68
2021/04/27 03:24:01;;;;;;;9.17;5.53;;;;;;;0.18;100.00;100227.00;1751773;82;21160;-69
2021/04/27 03:26:29;;;;;;;12.10;5.90;;;;;;;0.22;100.00;100226.33;1751782;82;21290;-68
2021/04/27 03:29:14;;;;;;;13.57;6.00;;;;;;;0.25;100.00;100230.09;1751786;82;21092;-70
2021/04/27 03:31:44;;;;;;;8.97;5.53;;;;;;;0.29;100.00;100232.95;1751642;82;21156;-69
2021/04/27 03:34:12;;;;;;;11.40;6.10;;;;;;;0.32;100.00;100230.06;1751686;82;21216;-69
2021/04/27 03:36:41;;;;;;;10.03;5.57;;;;;;;0.35;100.00;100230.75;1751755;82;21598;-69
2021/04/27 03:39:09;;;;;;;11.17;5.30;;;;;;;0.40;100.00;100226.92;1727110;82;21132;-69
2021/04/27 03:41:36;;;;;;;9.50;5.53;;;;;;;0.45;100.00;100223.48;1751812;82;21230;-69
2021/04/27 03:44:05;;;;;;;10.30;5.87;;;;;;;0.50;100.00;100220.05;1789273;78;21527;-69
2021/04/27 03:46:34;;;;;;;10.70;6.00;;;;;;;0.56;100.00;100225.78;1827320;78;21112;-69
2021/04/27 03:49:03;;;;;;;11.53;5.20;;;;;;;0.61;100.00;100221.98;1795575;78;21148;-68
2021/04/27 03:51:33;;;;;;;9.83;5.27;;;;;;;0.66;100.00;100221.20;1827374;78;21582;-69
2021/04/27 03:54:08;;;;;;;9.73;5.60;;;;;;;0.72;100.00;100222.10;1726459;81;21125;-69
2021/04/27 03:56:38;;;;;;;13.13;6.03;;;;;;;0.79;100.00;100227.38;1723478;83;21290;-69
2021/04/27 03:59:07;;;;;;;9.73;5.70;;;;;;;0.85;100.00;100222.98;1723441;83;21153;-69
2021/04/27 04:01:35;;;;;;;11.97;5.60;;;;;;;0.89;100.00;100226.30;1723368;83;21615;-70
2021/04/27 04:04:03;;;;;;;10.87;5.83;;;;;;;0.92;100.00;100225.61;1723196;83;21606;-69
2021/04/27 04:06:33;;;;;;;10.83;6.07;;;;;;;0.96;100.00;100223.59;1722833;83;21160;-70
2021/04/27 04:09:08;;;;;;;12.70;6.07;;;;;;;1.01;100.00;100229.91;1722874;83;21326;-68
2021/04/27 04:11:38;;;;;;;12.93;6.43;;;;;;;1.05;100.00;100222.95;1722840;83;21164;-67
2021/04/27 04:14:07;;;;;;;14.83;7.80;;;;;;;1.11;100.00;100213.19;1722962;83;21157;-70
2021/04/27 04:16:46;;;;;;;16.47;9.20;;;;;;;1.23;100.00;100207.50;1855111;77;22947;-69
2021/04/27 04:19:16;;;;;;;16.17;8.17;;;;;;;1.29;100.00;100202.22;1827687;78;21657;-69
2021/04/27 04:21:45;;;;;;;14.67;7.50;;;;;;;1.39;100.00;100207.27;1822502;78;21338;-69
2021/04/27 04:24:15;;;;;;;16.57;8.53;;;;;;;1.48;100.00;100211.95;1827376;78;21299;-68
2021/04/27 04:26:43;;;;;;;17.17;8.87;;;;;;;1.58;100.00;100209.50;1827522;78;21302;-69
2021/04/27 04:29:19;;;;;;;20.20;9.20;;;;;;;1.69;100.00;100217.56;1822935;78;21156;-70
2021/04/27 04:31:49;;;;;;;18.07;8.93;;;;;;;1.80;100.00;100206.62;1822752;78;21922;-68
2021/04/27 04:34:35;;;;;;;15.70;8.40;;;;;;;1.92;100.00;100200.39;1827480;78;21144;-70
2021/04/27 04:37:05;;;;;;;16.70;9.23;;;;;;;2.09;100.00;100213.36;1721805;82;21361;-71
2021/04/27 04:39:51;;;;;;;14.93;8.40;;;;;;;2.26;100.00;100205.42;1721946;82;21230;-69
2021/04/27 04:42:43;;;;;;;12.37;6.73;;;;;;;2.53;100.00;100194.98;1814554;77;22515;-68
2021/04/27 04:45:25;;;;;;;14.60;6.97;;;;;;;2.61;100.00;100188.59;1674717;84;21175;-68
2021/04/27 04:48:10;;;;;;;13.03;6.67;;;;;;;2.68;100.00;100184.14;1673866;84;21158;-68
2021/04/27 04:50:52;;;;;;;15.80;7.23;;;;;;;2.78;100.00;100185.98;1855025;77;22579;-70
2021/04/27 04:53:33;;;;;;;16.33;7.43;;;;;;;2.82;100.00;100193.28;1722739;82;21184;-69
2021/04/27 04:56:03;;;;;;;12.43;6.23;;;;;;;2.93;100.00;100190.62;1722663;82;21156;-70
2021/04/27 04:58:35;;;;;;;13.35;6.75;;;;;;;2.96;100.00;100194.40;1722832;83;21645;-70
2021/04/27 05:01:05;;;;;;;17.27;8.63;;;;;;;2.98;100.00;100190.28;1722800;83;21236;-69
2021/04/27 05:03:33;;;;;;;10.97;5.90;;;;;;;3.00;100.00;100202.53;1722658;83;21216;-70
2021/04/27 05:06:20;;;;;;;16.20;8.87;;;;;;;3.03;100.00;100198.79;1722639;83;21290;-70
2021/04/27 05:09:09;;;;;;;27.07;15.60;;;;;;;3.14;100.00;100199.29;1722726;82;21310;-71
2021/04/27 05:12:05;;;;;;;20.48;11.57;;;;;;;3.27;100.00;100188.48;1798973;77;28289;-70
2021/04/27 05:14:41;;;;;;;18.83;10.30;;;;;;;3.25;100.00;100188.60;1702940;84;21183;-70
2021/04/27 05:17:13;;;;;;;14.53;7.67;;;;;;;3.30;100.00;100190.43;1703277;84;21205;-71
2021/04/27 05:19:41;;;;;;;9.00;5.50;;;;;;;3.33;100.00;100190.20;1677478;84;21248;-69
2021/04/27 05:22:10;;;;;;;8.73;5.67;;;;;;;3.34;100.00;100185.20;1703435;84;21537;-72
2021/04/27 05:24:38;;;;;;;11.43;5.90;;;;;;;3.28;100.00;100187.03;1702954;84;21311;-69
2021/04/27 05:27:14;;;;;;;12.63;6.20;;;;;;;3.23;100.00;100187.88;1702929;84;21182;-70
2021/04/27 05:29:43;;;;;;;13.07;6.27;;;;;;;3.21;100.00;100186.66;1703102;84;21170;-68
2021/04/27 05:32:11;;;;;;;11.80;5.90;;;;;;;3.21;100.00;100183.14;1703984;82;21211;-67
2021/04/27 05:34:39;;;;;;;10.93;5.93;;;;;;;3.20;100.00;100176.08;1721691;82;21185;-67
2021/04/27 05:37:07;;;;;;;10.73;5.60;;;;;;;3.21;100.00;100179.13;1721888;83;21220;-71
2021/04/27 05:39:35;;;;;;;12.33;6.23;;;;;;;3.26;100.00;100182.77;1727308;83;21168;-69
2021/04/27 05:42:04;;;;;;;12.27;6.00;;;;;;;3.27;100.00;100179.97;1713564;83;21165;-71
2021/04/27 05:44:32;;;;;;;12.63;6.90;;;;;;;3.29;100.00;100183.37;1699996;84;21266;-70
2021/04/27 05:47:02;;;;;;;14.40;7.20;;;;;;;3.32;100.00;100181.80;1700097;84;21277;-70
2021/04/27 05:49:30;;;;;;;15.63;8.30;;;;;;;3.36;100.00;100186.42;1700262;84;21172;-70
2021/04/27 05:51:58;;;;;;;14.33;7.80;;;;;;;3.38;100.00;100187.14;1735825;79;21128;-69
2021/04/27 05:54:25;;;;;;;15.63;8.30;;;;;;;3.41;100.00;100185.57;1784009;80;21607;-71
2021/04/27 05:56:54;;;;;;;13.23;7.50;;;;;;;3.44;100.00;100187.17;1785434;80;21149;-73
2021/04/27 05:59:22;;;;;;;16.43;8.50;;;;;;;3.50;100.00;100188.00;1783914;80;21393;-73
2021/04/27 06:01:50;;;;;;;17.73;8.97;;;;;;;3.56;100.00;100188.38;1804989;79;21153;-71
2021/04/27 06:04:18;;;;;;;15.93;7.60;;;;;;;3.68;100.00;100185.67;1744601;81;21235;-72
2021/04/27 06:06:46;;;;;;;15.67;7.77;;;;;;;3.85;100.00;100186.51;1775164;81;21567;-74
2021/04/27 06:09:16;;;;;;;16.50;7.90;;;;;;;4.01;100.00;100192.80;1706675;82;21200;-72
2021/04/27 06:11:45;;;;;;;15.00;8.23;;;;;;;4.11;100.00;100189.74;1701799;83;21572;-70
2021/04/27 06:14:13;;;;;;;18.33;8.70;;;;;;;4.17;100.00;100182.53;1742463;81;21148;-72
2021/04/27 06:16:41;;;;;;;16.73;8.23;;;;;;;4.21;100.00;100185.80;1768578;81;21126;-72
2021/04/27 06:19:09;;;;;;;16.17;8.77;;;;;;;4.31;100.00;100185.91;1756779;81;21165;-72
2021/04/27 06:21:37;;;;;;;18.10;10.67;;;;;;;4.44;100.00;100189.25;1769735;79;21157;-71
2021/04/27 06:24:07;;;;;;;18.90;9.40;;;;;;;4.61;100.00;100185.67;1730729;82;21729;-71
2021/04/27 06:26:35;;;;;;;14.23;7.40;;;;;;;4.78;100.00;100190.45;1809810;79;21310;-71
2021/04/27 06:29:05;;;;;;;14.83;7.90;;;;;;;4.88;100.00;100193.19;1809615;79;21118;-73
2021/04/27 06:31:33;;;;;;;16.40;9.13;;;;;;;4.93;100.00;100189.13;1804811;79;21133;-72
2021/04/27 06:34:01;;;;;;;25.90;14.57;;;;;;;5.06;100.00;100187.58;1755684;81;21632;-71
2021/04/27 06:36:33;;;;;;;19.47;10.10;;;;;;;5.16;100.00;100193.52;1756988;81;21188;-73
2021/04/27 06:39:04;;;;;;;16.57;8.70;;;;;;;5.25;100.00;100188.19;1741468;82;21165;-70
2021/04/27 06:41:32;;;;;;;18.43;9.10;;;;;;;5.38;100.00;100194.66;1746356;81;21239;-72
2021/04/27 06:44:01;;;;;;;47.43;36.67;;;;;;;5.42;100.00;100193.91;1757137;81;21369;-74
2021/04/27 06:46:30;;;;;;;22.03;13.40;;;;;;;5.42;100.00;100189.88;1770209;81;21257;-71
2021/04/27 06:49:00;;;;;;;18.97;10.97;;;;;;;5.44;100.00;100187.44;1748824;81;21575;-71
2021/04/27 06:51:28;;;;;;;14.73;8.03;;;;;;;5.52;100.00;100193.46;1752877;81;21239;-72
2021/04/27 06:53:56;;;;;;;14.53;7.17;;;;;;;5.60;100.00;100193.65;1747568;81;21263;-71
2021/04/27 06:56:26;;;;;;;14.07;7.60;;;;;;;5.68;100.00;100205.03;1674835;85;21198;-72
2021/04/27 06:58:54;;;;;;;17.47;6.87;;;;;;;5.73;100.00;100196.09;1748821;81;21117;-74
2021/04/27 07:01:23;;;;;;;14.63;6.80;;;;;;;5.81;100.00;100207.50;1771907;81;21133;-71
2021/04/27 07:03:52;;;;;;;14.70;7.53;;;;;;;5.86;100.00;100199.39;1760814;81;21283;-74
2021/04/27 07:06:20;;;;;;;17.23;9.13;;;;;;;5.89;100.00;100204.47;1767670;81;21146;-71
2021/04/27 07:08:48;;;;;;;17.70;7.87;;;;;;;5.99;100.00;100217.12;1762485;81;21125;-70
2021/04/27 07:11:16;;;;;;;18.07;8.50;;;;;;;6.04;100.00;100214.88;1777303;80;21110;-71
2021/04/27 07:13:44;;;;;;;16.57;7.83;;;;;;;6.05;100.00;100214.70;1783942;80;21345;-71
2021/04/27 07:16:15;;;;;;;18.70;8.90;;;;;;;6.07;100.00;100218.60;1786730;80;21125;-70
2021/04/27 07:18:42;;;;;;;18.53;8.63;;;;;;;6.10;100.00;100225.05;1778187;80;21266;-69
2021/04/27 07:21:10;;;;;;;10.53;5.70;;;;;;;6.11;100.00;100229.44;1758216;80;21607;-70
2021/04/27 07:23:38;;;;;;;16.73;7.63;;;;;;;6.08;100.00;100223.84;1784233;80;21677;-71
2021/04/27 07:26:07;;;;;;;9.03;4.90;;;;;;;6.05;100.00;100217.89;1777824;80;21259;-71
2021/04/27 07:28:36;;;;;;;7.63;4.20;;;;;;;6.01;100.00;100227.22;1786563;80;21164;-71
2021/04/27 07:31:04;;;;;;;6.03;4.03;;;;;;;5.95;100.00;100243.35;1786800;80;21551;-71
2021/04/27 07:33:32;;;;;;;9.47;5.37;;;;;;;5.84;100.00;100235.38;1781218;80;21315;-69
2021/04/27 07:36:00;;;;;;;7.43;4.30;;;;;;;5.77;100.00;100236.44;1772843;80;21306;-68
2021/04/27 07:38:28;;;;;;;7.70;4.83;;;;;;;5.77;100.00;100239.12;1770484;80;21093;-70
2021/04/27 07:40:57;;;;;;;8.00;4.57;;;;;;;5.71;100.00;100231.59;1766163;80;21077;-69
2021/04/27 07:43:27;;;;;;;16.07;8.00;;;;;;;5.67;100.00;100230.18;1769757;80;21482;-70
2021/04/27 07:45:55;;;;;;;14.37;6.70;;;;;;;5.70;100.00;100221.37;1764530;80;21267;-71
2021/04/27 07:48:23;;;;;;;8.63;4.97;;;;;;;5.80;100.00;100226.75;1773302;80;21113;-70
2021/04/27 07:50:51;;;;;;;12.90;6.17;;;;;;;5.88;100.00;100232.80;1771436;80;21101;-70
2021/04/27 07:53:19;;;;;;;9.23;5.30;;;;;;;5.90;100.00;100239.72;1762208;80;21097;-68
2021/04/27 07:55:47;;;;;;;11.37;5.50;;;;;;;5.94;100.00;100235.44;1770052;80;21145;-69
2021/04/27 07:58:15;;;;;;;10.67;5.93;;;;;;;6.00;100.00;100241.61;1772718;80;21298;-70
2021/04/27 08:00:43;;;;;;;14.90;6.93;;;;;;;6.07;100.00;100227.53;1762671;80;21132;-70
2021/04/27 08:03:11;;;;;;;16.07;7.07;;;;;;;6.14;100.00;100232.33;1775575;80;21246;-68
2021/04/27 08:05:40;;;;;;;20.90;9.30;;;;;;;6.21;100.00;100230.28;1767498;80;21168;-71
2021/04/27 08:08:09;;;;;;;15.63;7.00;;;;;;;6.26;100.00;100222.67;1757321;80;21746;-70
2021/04/27 08:10:39;;;;;;;13.80;6.30;;;;;;;6.31;100.00;100216.05;1766334;81;21148;-68
2021/04/27 08:13:07;;;;;;;14.90;6.47;;;;;;;6.34;100.00;100211.72;1773330;79;21734;-67
2021/04/27 08:15:35;;;;;;;11.73;6.33;;;;;;;6.38;100.00;100215.84;1767660;81;21196;-68
2021/04/27 08:18:04;;;;;;;11.67;6.90;;;;;;;6.39;100.00;100206.31;1771982;81;21176;-68
2021/04/27 08:20:32;;;;;;;16.03;6.90;;;;;;;6.37;100.00;100215.48;1771853;81;21267;-77
2021/04/27 08:23:01;;;;;;;13.60;5.97;;;;;;;6.41;100.00;100208.36;1771941;81;22464;-75
2021/04/27 08:25:32;;;;;;;8.43;4.77;;;;;;;6.49;100.00;100226.95;1746226;81;21138;-73
2021/04/27 08:27:59;;;;;;;7.53;4.47;;;;;;;6.43;100.00;100207.72;1747460;81;21670;-78
2021/04/27 08:30:27;;;;;;;7.23;4.47;;;;;;;6.32;100.00;100207.86;1742982;82;21315;-81
2021/04/27 08:32:57;;;;;;;8.03;4.70;;;;;;;6.21;100.00;100207.46;1756426;79;21273;-78
2021/04/27 08:35:25;;;;;;;8.80;4.77;;;;;;;6.12;100.00;100203.44;1759351;81;21263;-77
2021/04/27 08:37:53;;;;;;;12.97;5.73;;;;;;;6.07;100.00;100210.55;1741412;81;21164;-72
2021/04/27 08:40:22;;;;;;;8.77;4.80;;;;;;;6.10;100.00;100207.59;1750173;81;21126;-74
2021/04/27 08:42:51;;;;;;;8.27;4.17;;;;;;;6.21;100.00;100206.13;1770659;81;21154;-73
2021/04/27 08:45:19;;;;;;;8.03;4.53;;;;;;;6.33;100.00;100198.80;1766232;80;21290;-74
2021/04/27 08:47:48;;;;;;;7.90;4.40;;;;;;;6.43;100.00;100195.63;1764759;80;21268;-70
2021/04/27 08:50:18;;;;;;;7.20;4.77;;;;;;;6.48;100.00;100187.64;1758240;81;21564;-72
2021/04/27 08:52:46;;;;;;;7.53;4.33;;;;;;;6.53;100.00;100185.38;1768379;81;21124;-72
2021/04/27 08:55:14;;;;;;;6.83;4.53;;;;;;;6.56;100.00;100179.73;1772413;79;21098;-70
2021/04/27 08:57:42;;;;;;;55.90;35.60;;;;;;;6.54;100.00;100185.24;1772030;81;21520;-73
2021/04/27 09:00:14;;;;;;;6.07;4.37;;;;;;;6.50;100.00;100183.84;1749773;81;21137;-72
2021/04/27 09:02:45;;;;;;;7.10;4.35;;;;;;;6.49;100.00;100183.47;1741652;81;21145;-72
2021/04/27 09:05:28;;;;;;;6.67;4.20;;;;;;;6.45;100.00;100182.91;1757931;81;21255;-73
2021/04/27 09:07:57;;;;;;;4.70;3.60;;;;;;;6.45;100.00;100182.06;1771937;81;21161;-73
2021/04/27 09:10:33;;;;;;;4.60;3.77;;;;;;;6.43;100.00;100182.20;1771823;81;21311;-73
2021/04/27 09:13:16;;;;;;;7.53;3.90;;;;;;;6.42;100.00;100181.84;1851672;77;22978;-72
2021/04/27 09:15:51;;;;;;;6.00;4.23;;;;;;;6.34;100.00;100179.49;1814484;78;21154;-70
2021/04/27 09:18:31;;;;;;;6.17;3.90;;;;;;;6.33;100.00;100194.77;1819046;79;21177;-70
2021/04/27 09:21:06;;;;;;;5.30;3.97;;;;;;;6.36;100.00;100195.84;1804544;79;21315;-69
2021/04/27 09:23:40;;;;;;;6.33;3.83;;;;;;;6.35;100.00;100180.70;1722270;83;21133;-69
2021/04/27 09:26:16;;;;;;;;;;;;;;;6.37;100.00;100181.91;1789574;80;21113;-71
2021/04/27 09:28:47;;;;;;;7.37;4.03;;;;;;;6.42;100.00;100185.86;1800102;79;20483;-71
2021/04/27 09:31:35;;;;;;;7.17;4.40;;;;;;;6.52;100.00;100179.16;1802338;79;21113;-71
2021/04/27 09:34:30;;;;;;;5.30;3.70;;;;;;;6.57;100.00;100171.53;1778942;80;21483;-71
2021/04/27 09:37:04;;;;;;;7.43;4.30;;;;;;;6.70;100.00;100183.83;1785214;80;21233;-71
2021/04/27 09:39:39;;;;;;;7.67;4.20;;;;;;;6.75;100.00;100182.41;1782480;80;21311;-72
2021/04/27 09:42:15;;;;;;;6.10;3.87;;;;;;;6.81;100.00;100167.03;1780176;80;21175;-72
2021/04/27 09:44:53;;;;;;;5.10;3.97;;;;;;;6.77;100.00;100167.48;1755314;80;21172;-73
2021/04/27 09:47:31;;;;;;;5.07;3.97;;;;;;;6.67;100.00;100170.67;1779125;80;21614;-72
2021/04/27 09:50:09;;;;;;;5.70;3.93;;;;;;;6.55;100.00;100173.98;1776869;81;21242;-73
2021/04/27 09:52:46;;;;;;;6.27;4.63;;;;;;;6.52;100.00;100174.30;1768209;80;21145;-84
2021/04/27 09:55:20;;;;;;;5.33;4.07;;;;;;;6.53;100.00;100180.84;1776668;81;21157;-79
2021/04/27 09:57:53;;;;;;;14.03;7.83;;;;;;;6.52;100.00;100167.58;1711999;84;21157;-77
2021/04/27 10:00:32;;;;;;;;;;;;;;;6.44;100.00;100183.88;1779813;80;21327;-76
2021/04/27 10:03:06;;;;;;;6.47;4.60;;;;;;;6.40;100.00;100180.29;1777204;80;20194;-73
2021/04/27 10:05:50;;;;;;;10.00;5.20;;;;;;;6.36;100.00;100174.36;1814589;77;22734;-75
2021/04/27 10:08:29;;;;;;;10.10;5.63;;;;;;;6.29;100.00;100194.70;1756213;80;21137;-76
2021/04/27 10:10:57;;;;;;;6.37;4.50;;;;;;;6.27;100.00;100183.26;1712077;83;21136;-75
2021/04/27 10:13:25;;;;;;;7.27;4.23;;;;;;;6.21;100.00;100186.48;1718538;82;21123;-75
2021/04/27 10:15:53;;;;;;;7.67;4.07;;;;;;;6.15;100.00;100191.92;1717848;81;21186;-74
2021/04/27 10:18:21;;;;;;;9.60;4.60;;;;;;;6.12;100.00;100194.88;1714513;83;21674;-74
2021/04/27 10:20:49;;;;;;;8.53;4.67;;;;;;;6.11;100.00;100194.55;1713617;82;21693;-72
2021/04/27 10:23:17;;;;;;;8.33;4.10;;;;;;;6.09;100.00;100199.17;1730876;81;21206;-73
2021/04/27 10:25:46;;;;;;;6.70;4.13;;;;;;;6.07;100.00;100203.84;1717251;82;21564;-73
2021/04/27 10:28:14;;;;;;;6.17;4.00;;;;;;;6.03;100.00;100191.19;1732831;82;21128;-71
2021/04/27 10:30:46;;;;;;;6.87;4.70;;;;;;;6.03;100.00;100197.89;1695690;84;21120;-70
2021/04/27 10:33:19;;;;;;;7.20;4.57;;;;;;;6.03;100.00;100197.06;1696147;84;21352;-70
2021/04/27 10:36:08;;;;;;;6.93;4.27;;;;;;;5.98;100.00;100196.11;1696020;84;21293;-74
2021/04/27 10:38:46;;;;;;;5.57;4.20;;;;;;;5.92;100.00;100194.47;1692759;85;21132;-70
2021/04/27 10:41:22;;;;;;;5.50;4.60;;;;;;;5.75;100.00;100207.53;1822604;77;22597;-71
2021/04/27 10:43:57;;;;;;;8.47;4.67;;;;;;;5.55;100.00;100225.39;1795166;78;21148;-69
2021/04/27 10:46:43;;;;;;;7.23;4.60;;;;;;;5.39;100.00;100215.65;1805006;77;22437;-71
2021/04/27 10:49:28;;;;;;;6.53;4.33;;;;;;;5.24;100.00;100217.81;1768462;80;21093;-69
2021/04/27 10:51:56;;;;;;;7.17;4.90;;;;;;;5.15;100.00;100223.47;1725839;81;21851;-70
2021/04/27 10:54:34;;;;;;;8.03;4.60;;;;;;;5.02;100.00;100225.02;1727009;82;21139;-70
2021/04/27 10:57:10;;;;;;;7.30;4.93;;;;;;;4.94;100.00;100220.32;1703036;83;21219;-72
2021/04/27 10:59:57;;;;;;;9.70;4.93;;;;;;;4.91;100.00;100213.87;1730884;83;21325;-72
2021/04/27 11:02:31;;;;;;;8.87;5.10;;;;;;;4.88;100.00;100217.30;1717765;83;21723;-69
2021/04/27 11:05:11;;;;;;;4.40;3.80;;;;;;;4.83;100.00;100219.52;1720477;83;21143;-70
2021/04/27 11:07:40;;;;;;;4.27;3.50;;;;;;;4.80;100.00;100222.45;1717817;83;21179;-70
2021/04/27 11:10:19;;;;;;;5.60;3.70;;;;;;;4.69;100.00;100222.89;1724348;83;21147;-71
2021/04/27 11:12:57;;;;;;;5.63;3.87;;;;;;;4.63;100.00;100216.69;1727691;81;21203;-73
2021/04/27 11:15:32;;;;;;;6.83;4.63;;;;;;;4.60;100.00;100212.92;1733623;83;21171;-69
2021/04/27 11:18:10;;;;;;;9.17;5.30;;;;;;;4.59;100.00;100213.08;1719296;83;21185;-68
2021/04/27 11:20:52;;;;;;;8.50;5.00;;;;;;;4.64;100.00;100200.99;1709389;82;21286;-69
2021/04/27 11:23:46;;;;;;;7.53;4.37;;;;;;;4.73;100.00;100204.73;1722348;82;21237;-69
2021/04/27 11:26:37;;;;;;;7.58;4.60;;;;;;;4.79;100.00;100204.19;1707796;83;21328;-72
2021/04/27 11:29:18;;;;;;;5.53;4.40;;;;;;;4.90;100.00;100204.13;1716170;83;21317;-68
2021/04/27 11:32:16;;;;;;;6.60;4.50;;;;;;;5.00;100.00;100204.20;1701409;82;21195;-69
2021/04/27 11:34:57;;;;;;;11.20;5.13;;;;;;;5.08;100.00;100198.17;1724812;82;21321;-69
2021/04/27 11:37:30;;;;;;;15.03;7.63;;;;;;;5.17;100.00;100193.38;1705951;81;21108;-71
2021/04/27 11:40:31;;;;;;;16.17;7.97;;;;;;;5.29;100.00;100191.45;1814193;77;22617;-69
2021/04/27 11:43:06;;;;;;;9.57;5.13;;;;;;;5.36;100.00;100191.27;1766410;80;21145;-74